Time;durP1;ratioP1;P1;durP2;ratioP2;P2;SDS_P1;SDS_P2;PMS_P1;PMS_P2;Temp;Humidity;BMP_temperature;BMP_pressure;BME280_temperature;BME280_humidity;BME280_pressure;Samples;Min_cycle;Max_cycle;Signal;HPM_P1;HPM_P2
2023/01/26 06:58:46;;;;;;;16.70;9.73;;;;;;;;;;4918083;29;20056;-92
2023/01/26 07:01:23;;;;;;;14.93;9.07;;;;;;;;;;4902847;29;20040;-90
2023/01/26 07:03:50;;;;;;;14.23;9.35;;;;;;;;;;4902726;29;20028;-91
2023/01/26 10:24:52;;;;;;;10.40;8.15;;;;;;;;;;4915541;29;20549;-87
2023/01/26 10:27:18;;;;;;;10.88;7.80;;;;;;;;;;4923749;29;20479;-91
2023/01/26 10:29:43;;;;;;;9.80;7.63;;;;;;;;;;4921691;29;20032;-94
2023/01/26 10:32:27;;;;;;;11.23;7.97;;;;;;;;;;4935564;29;20035;-94
2023/01/26 10:34:52;;;;;;;10.57;8.48;;;;;;;;;;4941798;29;20522;-92
2023/01/26 10:37:21;;;;;;;11.32;8.57;;;;;;;;;;4924025;29;20059;-92
2023/01/26 10:39:57;;;;;;;11.20;7.90;;;;;;;;;;4940609;29;20028;-90
2023/01/26 10:42:27;;;;;;;12.40;8.23;;;;;;;;;;4925180;29;20028;-90
2023/01/26 10:44:53;;;;;;;12.02;9.13;;;;;;;;;;4926736;29;20032;-93
2023/01/26 10:47:21;;;;;;;14.20;9.65;;;;;;;;;;4948541;29;20020;-89
2023/01/26 10:49:48;;;;;;;12.75;9.38;;;;;;;;;;4947745;29;20039;-92
2023/01/26 10:52:20;;;;;;;11.90;9.15;;;;;;;;;;4948504;29;20087;-91
2023/01/26 10:55:07;;;;;;;12.65;8.85;;;;;;;;;;4944973;29;20047;-90
2023/01/26 10:57:37;;;;;;;12.95;10.13;;;;;;;;;;4931861;29;20039;-92
2023/01/26 11:00:18;;;;;;;16.17;10.20;;;;;;;;;;4947116;29;20032;-92
2023/01/26 11:02:50;;;;;;;11.25;8.93;;;;;;;;;;4948651;29;20023;-94
2023/01/26 11:05:25;;;;;;;12.77;9.25;;;;;;;;;;4950376;29;20027;-92
2023/01/26 11:08:01;;;;;;;12.57;9.80;;;;;;;;;;4946723;29;20031;-92
2023/01/26 11:10:36;;;;;;;12.25;9.10;;;;;;;;;;4948063;29;20027;-94
2023/01/26 11:13:18;;;;;;;13.65;10.10;;;;;;;;;;4944144;29;20079;-92
2023/01/26 11:15:47;;;;;;;15.02;9.43;;;;;;;;;;4922896;29;20423;-94
2023/01/26 11:18:15;;;;;;;12.15;8.90;;;;;;;;;;4939315;29;20036;-91
2023/01/26 11:20:56;;;;;;;13.48;8.95;;;;;;;;;;4939167;29;20016;-90
2023/01/26 11:23:25;;;;;;;15.73;9.57;;;;;;;;;;4940101;29;20027;-91
2023/01/26 11:26:17;;;;;;;15.23;10.32;;;;;;;;;;4939388;29;20056;-92
2023/01/26 11:28:49;;;;;;;16.40;9.85;;;;;;;;;;4921860;29;20471;-91
2023/01/26 11:31:30;;;;;;;15.60;9.48;;;;;;;;;;4938339;29;20042;-91
2023/01/26 11:34:13;;;;;;;15.45;10.07;;;;;;;;;;4938249;29;20027;-88
2023/01/26 11:37:01;;;;;;;14.02;9.68;;;;;;;;;;4937458;29;20099;-88
2023/01/26 11:39:34;;;;;;;13.50;8.80;;;;;;;;;;4937614;29;20046;-88
2023/01/26 11:42:33;;;;;;;13.98;8.75;;;;;;;;;;4920553;29;20376;-88
2023/01/26 11:45:29;;;;;;;16.20;10.00;;;;;;;;;;4949002;29;20466;-84
2023/01/26 11:48:09;;;;;;;15.75;9.80;;;;;;;;;;4933022;29;20032;-87
2023/01/26 11:51:07;;;;;;;14.20;10.13;;;;;;;;;;4939630;29;20032;-90
2023/01/26 11:54:29;;;;;;;17.48;10.32;;;;;;;;;;4911055;29;20043;-88
2023/01/26 11:57:16;;;;;;;14.35;9.70;;;;;;;;;;4909343;29;20114;-88
2023/01/26 11:59:47;;;;;;;13.25;9.75;;;;;;;;;;4920913;29;20407;-88
2023/01/26 17:06:36;;;;;;;15.83;8.90;;;;;;;;;;4937578;29;20055;-91
2023/01/26 17:09:02;;;;;;;13.93;9.30;;;;;;;;;;4956020;29;20393;-90
2023/01/26 17:11:28;;;;;;;15.57;9.70;;;;;;;;;;4956375;29;20051;-90
2023/01/26 17:13:58;;;;;;;15.45;9.55;;;;;;;;;;4955383;29;20043;-89
2023/01/26 17:16:28;;;;;;;15.73;9.85;;;;;;;;;;4957389;29;20055;-89
2023/01/26 17:18:54;;;;;;;15.82;9.13;;;;;;;;;;4957622;29;20086;-90
2023/01/26 17:21:21;;;;;;;14.00;9.40;;;;;;;;;;4956764;29;20031;-95
2023/01/26 17:23:50;;;;;;;13.90;8.95;;;;;;;;;;4954568;23;20056;-92
2023/01/26 17:26:20;;;;;;;16.02;9.23;;;;;;;;;;4931937;29;20043;-91
2023/01/26 17:28:48;;;;;;;14.38;9.13;;;;;;;;;;4928947;29;20126;-93
2023/01/26 17:31:16;;;;;;;17.13;9.93;;;;;;;;;;4923145;29;20079;-92
2023/01/26 17:33:43;;;;;;;15.65;9.15;;;;;;;;;;4927559;29;20126;-93
2023/01/26 17:36:09;;;;;;;14.90;9.65;;;;;;;;;;4925984;29;20034;-94
2023/01/26 17:38:35;;;;;;;16.40;9.55;;;;;;;;;;4922092;29;20024;-93
2023/01/26 17:41:01;;;;;;;16.05;10.00;;;;;;;;;;4920874;29;20375;-93
2023/01/26 17:43:30;;;;;;;14.63;9.63;;;;;;;;;;4924682;29;20045;-94
2023/01/26 17:46:07;;;;;;;17.90;10.80;;;;;;;;;;4928310;29;20517;-94
2023/01/26 17:48:36;;;;;;;16.02;10.65;;;;;;;;;;4927195;29;20053;-93
2023/01/26 17:51:04;;;;;;;15.18;10.82;;;;;;;;;;4920112;29;20087;-95
2023/01/26 17:53:30;;;;;;;18.90;11.25;;;;;;;;;;4919716;29;20466;-95
2023/01/26 17:55:56;;;;;;;19.10;13.63;;;;;;;;;;4919646;29;20027;-95
2023/01/26 17:58:21;;;;;;;15.60;10.07;;;;;;;;;;4919740;29;20046;-93
2023/01/26 18:00:47;;;;;;;14.48;11.00;;;;;;;;;;4919780;29;20027;-94
2023/01/26 18:03:12;;;;;;;15.18;9.50;;;;;;;;;;4920756;29;20028;-92
2023/01/26 18:05:37;;;;;;;19.02;11.32;;;;;;;;;;4940126;29;20031;-92
2023/01/26 18:08:03;;;;;;;14.50;9.43;;;;;;;;;;4922952;29;20074;-94
2023/01/26 18:10:29;;;;;;;13.65;8.20;;;;;;;;;;4923928;29;20031;-91
2023/01/26 18:12:57;;;;;;;15.23;8.68;;;;;;;;;;4923000;29;20047;-93
2023/01/26 18:15:23;;;;;;;18.05;9.57;;;;;;;;;;4922980;29;20122;-92
2023/01/26 18:17:49;;;;;;;14.98;9.20;;;;;;;;;;4923588;29;20059;-92
2023/01/26 18:20:16;;;;;;;21.38;12.13;;;;;;;;;;4923051;29;20059;-92
2023/01/26 18:22:42;;;;;;;19.17;11.55;;;;;;;;;;4922513;29;20509;-93
2023/01/26 18:25:07;;;;;;;19.98;12.52;;;;;;;;;;4922539;29;20028;-94
2023/01/26 18:27:33;;;;;;;21.88;13.13;;;;;;;;;;4939351;29;20035;-92
2023/01/26 18:29:58;;;;;;;27.60;14.98;;;;;;;;;;4923210;29;20530;-92
2023/01/26 18:32:24;;;;;;;23.65;11.93;;;;;;;;;;4922270;29;20086;-94
2023/01/26 18:34:49;;;;;;;17.25;10.93;;;;;;;;;;4922340;29;20470;-93
2023/01/26 18:37:15;;;;;;;22.65;13.50;;;;;;;;;;4922285;29;20132;-93
2023/01/26 18:39:40;;;;;;;21.33;11.75;;;;;;;;;;4922280;29;20035;-91
2023/01/26 18:42:06;;;;;;;17.48;11.23;;;;;;;;;;4922832;29;20031;-92
2023/01/26 18:44:31;;;;;;;20.13;11.63;;;;;;;;;;4922376;29;20119;-92
2023/01/26 18:46:57;;;;;;;18.50;11.95;;;;;;;;;;4939200;29;20035;-92
2023/01/26 18:49:23;;;;;;;25.67;13.23;;;;;;;;;;4925353;29;20035;-94
2023/01/26 18:51:48;;;;;;;30.73;16.88;;;;;;;;;;4922202;29;20398;-90
2023/01/26 21:49:24;;;;;;;40.65;21.25;;;;;;;;;;4882710;29;19988;-93
2023/01/26 21:54:34;;;;;;;26.23;15.73;;;;;;;;;;4877794;29;20093;-92
2023/01/26 21:57:01;;;;;;;24.45;15.35;;;;;;;;;;4892224;29;20033;-92
2023/01/26 21:59:28;;;;;;;27.05;14.93;;;;;;;;;;4883286;29;20033;-91
2023/01/26 22:01:55;;;;;;;24.20;14.15;;;;;;;;;;4882484;29;20025;-91
2023/01/26 22:04:29;;;;;;;24.63;14.02;;;;;;;;;;4882228;29;20475;-89
2023/01/26 22:06:56;;;;;;;23.58;14.60;;;;;;;;;;4883097;29;20119;-91
2023/01/26 22:09:22;;;;;;;22.30;14.85;;;;;;;;;;4866647;29;20029;-91
2023/01/26 22:11:52;;;;;;;22.20;13.45;;;;;;;;;;4883149;29;20030;-94
2023/01/26 22:14:22;;;;;;;23.40;13.48;;;;;;;;;;4883088;29;20025;-91
2023/01/26 22:16:48;;;;;;;25.17;14.10;;;;;;;;;;4897374;29;20068;-90
2023/01/26 22:19:14;;;;;;;25.40;15.23;;;;;;;;;;4882694;29;20063;-91
2023/01/26 22:21:39;;;;;;;28.08;16.55;;;;;;;;;;4897458;29;20433;-90
2023/01/26 22:24:05;;;;;;;25.95;15.68;;;;;;;;;;4897211;29;20169;-91
2023/01/26 22:26:31;;;;;;;26.65;15.60;;;;;;;;;;4896864;29;20040;-90
2023/01/26 22:28:58;;;;;;;28.13;17.00;;;;;;;;;;4897187;29;20025;-90
2023/01/26 22:31:26;;;;;;;32.97;18.98;;;;;;;;;;4881561;29;20032;-90
2023/01/26 22:33:52;;;;;;;27.65;17.73;;;;;;;;;;4881658;29;20036;-91
2023/01/26 22:36:18;;;;;;;31.02;16.50;;;;;;;;;;4881537;29;20469;-91
2023/01/26 22:38:45;;;;;;;28.15;16.80;;;;;;;;;;4881692;29;20074;-92
2023/01/26 22:41:14;;;;;;;30.73;17.67;;;;;;;;;;4881616;29;20033;-92
2023/01/26 22:43:40;;;;;;;43.38;21.55;;;;;;;;;;4881226;29;20069;-91
2023/01/26 22:46:08;;;;;;;43.70;22.05;;;;;;;;;;4881068;29;20041;-92
2023/01/26 22:48:35;;;;;;;45.95;21.15;;;;;;;;;;4877679;29;20053;-89
2023/01/26 22:51:14;;;;;;;37.08;18.60;;;;;;;;;;4862854;29;20094;-90
2023/01/26 22:53:43;;;;;;;29.98;16.25;;;;;;;;;;4862626;29;20025;-93
2023/01/26 22:56:10;;;;;;;30.57;18.23;;;;;;;;;;4878261;29;20065;-92
2023/01/26 22:58:36;;;;;;;31.58;16.77;;;;;;;;;;4862505;29;20325;-91
2023/01/26 23:01:09;;;;;;;29.27;15.77;;;;;;;;;;4862597;29;20034;-92
